Ree Heights, South Dakota
Current Conditions -  °F | °C
As of 8:06 PM on Sunday 25 Jan 2015 (Local Time) from KHON Reporting Station
Overcast Overcast  
Wind Chill: 26°   Ceiling: 10000
Heat Index: 33°   Visibility: 10mi
Dew Point: 30°   Wind: 8mph
Humidity: 89%   Direction: 170°S
Pressure: 29.98"   Gusts: NA
Location:  44.52°N, 99.2°W
Report Text: KHON 260206Z AUTO 17007KT 10SM SCT024 OVC100 01/M01 A2998 RMK AO2 T00061011
Loading
Personal Weather Stations






























Interactive Weather Map New forecast layout! Learn more

10-Day Weather Forecast

Advertisements
Track Severe Weather on mobile